Time;durP1;ratioP1;P1;durP2;ratioP2;P2;SDS_P1;SDS_P2;PMS_P1;PMS_P2;Temp;Humidity;BMP_temperature;BMP_pressure;BME280_temperature;BME280_humidity;BME280_pressure;Samples;Min_cycle;Max_cycle;Signal;HPM_P1;HPM_P2
2023/05/22 00:00:12;;;;;;;21.73;15.50;;;;;;;15.61;100.00;100077.72;5045003;28;20346;-70
2023/05/22 00:02:42;;;;;;;19.93;14.77;;;;;;;15.59;100.00;100079.50;5046827;28;20221;-69
2023/05/22 00:05:13;;;;;;;22.93;15.60;;;;;;;15.65;100.00;100066.09;5052665;28;20225;-70
2023/05/22 00:07:41;;;;;;;21.53;15.90;;;;;;;15.62;100.00;100071.50;5033648;28;20228;-70
2023/05/22 00:10:08;;;;;;;24.23;16.17;;;;;;;15.63;100.00;100067.03;5026745;28;20494;-69
2023/05/22 00:12:35;;;;;;;23.47;15.13;;;;;;;15.69;100.00;100068.75;5042272;28;20758;-70
2023/05/22 00:15:02;;;;;;;20.73;14.90;;;;;;;15.61;100.00;100061.72;5043437;28;20321;-70
2023/05/22 00:17:29;;;;;;;21.97;15.43;;;;;;;15.54;100.00;100061.75;5044608;28;20198;-70
2023/05/22 00:20:03;;;;;;;23.20;16.00;;;;;;;15.44;100.00;100060.97;5050596;28;20195;-70
2023/05/22 00:22:30;;;;;;;24.97;16.20;;;;;;;15.32;100.00;100056.69;5054206;28;20191;-70
2023/05/22 00:24:57;;;;;;;22.70;15.73;;;;;;;15.29;100.00;100050.50;5028098;28;20308;-70
2023/05/22 00:27:23;;;;;;;20.83;14.23;;;;;;;15.27;100.00;100052.28;5051690;28;20695;-70
2023/05/22 00:29:50;;;;;;;21.13;15.60;;;;;;;15.33;100.00;100041.53;5052957;28;20195;-70
2023/05/22 00:32:16;;;;;;;19.97;15.03;;;;;;;15.27;100.00;100046.97;5047434;28;20199;-70
2023/05/22 00:34:42;;;;;;;21.80;15.37;;;;;;;15.32;100.00;100056.69;5048563;28;20225;-70
2023/05/22 00:37:09;;;;;;;21.27;15.00;;;;;;;15.22;100.00;100047.00;5050923;28;20286;-70
2023/05/22 00:39:36;;;;;;;20.67;14.67;;;;;;;15.11;100.00;100050.66;5048345;28;20663;-70
2023/05/22 00:42:02;;;;;;;21.93;15.40;;;;;;;15.17;100.00;100050.59;5045270;28;20225;-70
2023/05/22 00:44:29;;;;;;;19.57;15.07;;;;;;;15.14;100.00;100053.31;5050080;28;20195;-70
2023/05/22 00:46:55;;;;;;;20.47;14.50;;;;;;;15.10;100.00;100059.56;5049163;28;20249;-69
2023/05/22 00:49:22;;;;;;;23.93;15.53;;;;;;;15.05;100.00;100055.19;5033759;28;20302;-69
2023/05/22 00:51:49;;;;;;;19.47;14.27;;;;;;;15.03;100.00;100058.75;5047319;28;20222;-70
2023/05/22 00:54:16;;;;;;;23.00;16.07;;;;;;;14.99;100.00;100059.69;5050851;28;20645;-69
2023/05/22 00:56:42;;;;;;;23.03;15.60;;;;;;;14.97;100.00;100058.81;5048746;28;20205;-70
2023/05/22 00:59:09;;;;;;;22.50;16.40;;;;;;;14.97;100.00;100056.16;5051283;28;20199;-69
2023/05/22 01:01:40;;;;;;;21.17;15.37;;;;;;;14.92;100.00;100058.88;5046023;28;20219;-70
2023/05/22 01:04:11;;;;;;;22.47;16.27;;;;;;;14.93;100.00;100060.63;5047039;28;20226;-69
2023/05/22 01:06:40;;;;;;;21.80;16.03;;;;;;;14.88;100.00;100061.59;5050194;28;20663;-70
2023/05/22 01:09:07;;;;;;;21.20;15.77;;;;;;;15.01;100.00;100060.56;5047800;28;20250;-69
2023/05/22 01:11:52;;;;;;;22.57;16.07;;;;;;;14.98;100.00;100053.47;5055469;28;20218;-70
2023/05/22 01:15:01;;;;;;;23.90;16.70;;;;;;;15.01;100.00;100058.78;5049392;28;20309;-69
2023/05/22 01:17:39;;;;;;;24.47;16.97;;;;;;;14.90;100.00;100057.13;5030714;28;20199;-68
2023/05/22 01:20:15;;;;;;;21.73;16.17;;;;;;;14.88;100.00;100061.59;5048460;28;20219;-70
2023/05/22 01:23:19;;;;;;;23.17;16.83;;;;;;;14.83;100.00;100061.63;5047879;28;20199;-69
2023/05/22 01:26:07;;;;;;;23.67;16.33;;;;;;;14.74;100.00;100067.91;5053249;28;20269;-70
2023/05/22 01:28:51;;;;;;;24.37;16.97;;;;;;;14.68;100.00;100062.63;5040890;28;20201;-70
2023/05/22 01:31:23;;;;;;;25.97;16.67;;;;;;;14.64;100.00;100058.22;5050482;28;20236;-71
2023/05/22 01:33:53;;;;;;;25.00;16.53;;;;;;;14.65;100.00;100064.44;5051549;28;20717;-70
2023/05/22 01:36:23;;;;;;;23.37;16.47;;;;;;;14.63;100.00;100056.47;5045583;28;20195;-70
2023/05/22 01:38:51;;;;;;;21.83;16.60;;;;;;;14.64;100.00;100065.34;5048248;28;20195;-70
2023/05/22 01:41:18;;;;;;;23.27;16.33;;;;;;;14.57;100.00;100061.84;5047473;28;20714;-70
2023/05/22 01:43:45;;;;;;;22.87;17.27;;;;;;;14.60;100.00;100056.50;5045038;28;20191;-70
2023/05/22 01:46:12;;;;;;;25.07;17.60;;;;;;;14.55;100.00;100060.97;5055266;28;20202;-70
2023/05/22 01:48:38;;;;;;;23.07;16.60;;;;;;;14.50;100.00;100067.25;5052990;28;20229;-70
2023/05/22 01:51:17;;;;;;;23.67;16.40;;;;;;;14.41;100.00;100057.50;5049868;28;20930;-70
2023/05/22 01:53:54;;;;;;;25.90;17.13;;;;;;;14.48;100.00;100059.25;5042712;28;20215;-70
2023/05/22 01:56:33;;;;;;;22.57;16.40;;;;;;;14.45;100.00;100058.41;5051694;28;20567;-70
2023/05/22 01:59:07;;;;;;;22.17;16.60;;;;;;;14.48;100.00;100059.25;5040220;28;20199;-70
2023/05/22 02:01:37;;;;;;;22.93;16.47;;;;;;;14.47;100.00;100056.59;5047444;28;20223;-70
2023/05/22 02:04:04;;;;;;;22.60;17.03;;;;;;;14.46;100.00;100061.06;5046996;28;20199;-70
2023/05/22 02:06:32;;;;;;;28.80;17.43;;;;;;;14.45;100.00;100064.63;5045271;28;20222;-69
2023/05/22 02:09:00;;;;;;;23.77;16.97;;;;;;;14.39;100.00;100062.81;5040609;28;20200;-70
2023/05/22 02:11:31;;;;;;;26.90;18.67;;;;;;;14.39;100.00;100065.47;5048871;28;20242;-70
2023/05/22 02:13:57;;;;;;;24.10;17.27;;;;;;;14.34;100.00;100066.41;5039554;28;20221;-70
2023/05/22 02:16:24;;;;;;;26.33;17.43;;;;;;;14.29;100.00;100061.13;5045959;28;20696;-70
2023/05/22 02:18:52;;;;;;;22.93;16.67;;;;;;;14.26;100.00;100058.47;5043496;28;20260;-70
2023/05/22 02:21:21;;;;;;;26.37;17.03;;;;;;;14.22;100.00;100064.72;5052580;28;20242;-70
2023/05/22 02:23:47;;;;;;;23.83;16.77;;;;;;;14.18;100.00;100070.97;5041469;28;20187;-70
2023/05/22 02:26:13;;;;;;;25.47;17.30;;;;;;;14.16;100.00;100056.78;5034297;28;20199;-70
2023/05/22 02:28:41;;;;;;;24.50;17.07;;;;;;;14.17;100.00;100066.53;5049607;28;20191;-70
2023/05/22 02:31:08;;;;;;;23.73;17.33;;;;;;;14.21;100.00;100062.97;5053220;28;20218;-69
2023/05/22 02:33:34;;;;;;;25.20;17.90;;;;;;;14.23;100.00;100068.28;5047525;28;20198;-70
2023/05/22 02:36:01;;;;;;;24.70;17.50;;;;;;;14.16;100.00;100055.91;5050594;28;20665;-70
2023/05/22 02:38:27;;;;;;;25.97;17.87;;;;;;;14.16;100.00;100058.56;5045379;28;20286;-70
2023/05/22 02:40:53;;;;;;;25.27;18.33;;;;;;;14.15;100.00;100057.69;5048224;28;20237;-69
2023/05/22 02:43:20;;;;;;;23.47;17.60;;;;;;;14.10;100.00;100057.72;5048009;28;20285;-70
2023/05/22 02:45:46;;;;;;;24.70;17.87;;;;;;;14.13;100.00;100061.25;5048416;28;20197;-70
2023/05/22 02:48:13;;;;;;;26.77;17.70;;;;;;;14.17;100.00;100060.34;5041130;28;20209;-69
2023/05/22 02:50:39;;;;;;;27.20;18.83;;;;;;;14.30;100.00;100056.69;5048139;28;20711;-70
2023/05/22 02:53:07;;;;;;;26.63;18.03;;;;;;;14.30;100.00;100048.69;5047651;28;20227;-70
2023/05/22 02:55:33;;;;;;;26.77;18.80;;;;;;;14.29;100.00;100055.78;5053391;28;20229;-69
2023/05/22 02:58:00;;;;;;;26.33;18.53;;;;;;;14.24;100.00;100049.63;5049550;28;20868;-69
2023/05/22 03:00:26;;;;;;;24.47;18.10;;;;;;;14.22;100.00;100053.19;5041248;28;20245;-69
2023/05/22 03:02:52;;;;;;;28.80;18.37;;;;;;;14.14;100.00;100044.38;5047208;28;20199;-70
2023/05/22 03:05:19;;;;;;;25.40;18.27;;;;;;;14.10;100.00;100047.06;5049527;28;20278;-70
2023/05/22 03:07:45;;;;;;;26.43;19.33;;;;;;;14.08;100.00;100042.63;5045057;28;20286;-70
2023/05/22 03:10:14;;;;;;;27.00;19.70;;;;;;;14.20;100.00;100052.31;5032066;28;20219;-70
2023/05/22 03:12:40;;;;;;;26.07;18.13;;;;;;;14.12;100.00;100057.69;5048302;28;20194;-70
2023/05/22 03:15:07;;;;;;;26.07;18.40;;;;;;;14.04;100.00;100055.09;5045982;28;20701;-70
2023/05/22 03:17:34;;;;;;;28.00;19.40;;;;;;;14.09;100.00;100058.59;5043628;28;20592;-71
2023/05/22 03:20:00;;;;;;;26.27;19.63;;;;;;;14.13;100.00;100050.59;5047660;28;20277;-70
2023/05/22 03:22:27;;;;;;;29.33;19.57;;;;;;;14.11;100.00;100047.94;5044297;28;20207;-70
2023/05/22 03:24:53;;;;;;;25.63;18.63;;;;;;;14.06;100.00;100049.75;5043838;28;20209;-70
2023/05/22 03:27:20;;;;;;;26.60;18.67;;;;;;;14.00;100.00;100045.31;5042521;28;20204;-70
2023/05/22 03:29:46;;;;;;;26.20;18.70;;;;;;;13.99;100.00;100058.66;5051961;28;20210;-70
2023/05/22 03:32:12;;;;;;;24.97;17.60;;;;;;;13.85;100.00;100044.53;5050486;28;20194;-70
2023/05/22 03:34:39;;;;;;;27.60;19.00;;;;;;;13.82;100.00;100048.09;5029180;28;20226;-71
2023/05/22 03:37:05;;;;;;;26.87;18.03;;;;;;;13.76;100.00;100057.00;5048528;28;20198;-70
2023/05/22 03:39:32;;;;;;;29.10;19.13;;;;;;;13.77;100.00;100065.88;5043308;28;20205;-70
2023/05/22 03:41:58;;;;;;;29.87;19.43;;;;;;;13.77;100.00;100060.56;5047908;28;20272;-69
2023/05/22 03:44:24;;;;;;;25.97;19.37;;;;;;;13.78;100.00;100052.56;5051748;28;20205;-70
2023/05/22 03:46:51;;;;;;;25.07;18.37;;;;;;;13.80;100.00;100052.56;5045270;28;20694;-71
2023/05/22 03:49:17;;;;;;;28.87;19.97;;;;;;;13.85;100.00;100047.19;5051829;28;20241;-71
2023/05/22 03:51:43;;;;;;;31.00;21.03;;;;;;;13.95;100.00;100054.22;5050358;28;20222;-71
2023/05/22 03:54:10;;;;;;;28.87;19.47;;;;;;;13.95;100.00;100056.91;5032530;28;20242;-71
2023/05/22 03:56:36;;;;;;;26.43;19.00;;;;;;;13.96;100.00;100058.66;5050767;28;20194;-71
2023/05/22 03:59:03;;;;;;;26.77;19.50;;;;;;;13.99;100.00;100058.66;5043876;28;20203;-71
2023/05/22 04:01:29;;;;;;;29.47;21.57;;;;;;;14.21;100.00;100060.31;5039988;28;20739;-71
2023/05/22 04:03:56;;;;;;;29.77;20.27;;;;;;;14.21;100.00;100060.31;5046365;28;20208;-71
2023/05/22 04:06:22;;;;;;;30.30;21.07;;;;;;;14.37;100.00;100061.06;5037199;28;20256;-71
2023/05/22 04:08:49;;;;;;;28.50;20.73;;;;;;;14.45;100.00;100061.06;5048129;28;20213;-70
2023/05/22 04:11:18;;;;;;;28.27;20.67;;;;;;;14.58;100.00;100060.06;5045502;28;20298;-71
2023/05/22 04:13:44;;;;;;;30.50;20.93;;;;;;;14.56;100.00;100059.19;5034321;28;20638;-71
2023/05/22 04:16:11;;;;;;;28.70;21.37;;;;;;;14.69;100.00;100063.50;5044057;28;20710;-72
2023/05/22 04:18:37;;;;;;;30.10;21.80;;;;;;;14.77;100.00;100067.00;5051547;28;20236;-69
2023/05/22 04:21:06;;;;;;;26.83;19.50;;;;;;;14.83;100.00;100069.63;5034396;28;20322;-70
2023/05/22 04:23:33;;;;;;;28.57;19.90;;;;;;;14.89;100.00;100072.25;5053663;28;20278;-70
2023/05/22 04:26:01;;;;;;;27.17;19.63;;;;;;;14.87;100.00;100073.16;5029946;28;20198;-71
2023/05/22 04:28:29;;;;;;;28.87;20.13;;;;;;;14.90;100.00;100079.34;5049833;28;20600;-71
2023/05/22 04:30:59;;;;;;;27.23;18.93;;;;;;;14.94;100.00;100085.53;5048986;28;20645;-71
2023/05/22 04:33:25;;;;;;;26.17;18.90;;;;;;;14.95;100.00;100077.50;5050496;28;20206;-71
2023/05/22 04:35:53;;;;;;;27.97;19.77;;;;;;;15.05;100.00;100084.50;5051966;28;20569;-71
2023/05/22 04:38:20;;;;;;;27.53;19.27;;;;;;;15.14;100.00;100094.19;5048623;28;20203;-71
2023/05/22 04:40:47;;;;;;;27.60;18.90;;;;;;;15.21;100.00;100092.34;5052055;28;20248;-71
2023/05/22 04:43:13;;;;;;;27.60;19.53;;;;;;;15.38;100.00;100094.88;5041405;28;20218;-71
2023/05/22 04:45:41;;;;;;;28.17;19.13;;;;;;;15.47;100.00;100097.41;5048661;28;20297;-71
2023/05/22 04:48:07;;;;;;;28.13;18.57;;;;;;;15.59;100.00;100107.97;5049143;28;20199;-70
2023/05/22 04:50:34;;;;;;;24.80;18.13;;;;;;;15.72;100.00;100098.06;5068556;23;20231;-71
2023/05/22 04:53:02;;;;;;;27.00;18.07;;;;;;;15.82;100.00;100108.59;5051015;28;20199;-71
2023/05/22 04:55:32;;;;;;;27.43;18.30;;;;;;;15.80;100.00;100094.38;5050802;28;20227;-70
2023/05/22 04:57:59;;;;;;;22.60;17.47;;;;;;;15.93;100.00;100106.69;5051540;28;20202;-70
2023/05/22 05:00:27;;;;;;;29.43;17.80;;;;;;;16.07;100.00;100103.84;5047187;28;20215;-71
2023/05/22 05:02:54;;;;;;;27.70;17.43;;;;;;;16.19;100.00;100108.13;5029911;28;20511;-70
2023/05/22 05:05:20;;;;;;;25.07;17.53;;;;;;;16.28;100.00;100116.88;5012905;28;20195;-70
2023/05/22 05:07:48;;;;;;;25.87;17.87;;;;;;;16.41;100.00;100108.69;5035231;28;20254;-70
2023/05/22 05:10:15;;;;;;;26.10;17.70;;;;;;;16.48;100.00;100102.38;5035940;28;20258;-71
2023/05/22 05:12:42;;;;;;;24.53;17.40;;;;;;;16.65;100.00;100104.75;5034689;28;20203;-72
2023/05/22 05:15:09;;;;;;;28.00;17.50;;;;;;;16.79;100.00;100105.44;5031884;28;20233;-70
2023/05/22 05:17:35;;;;;;;27.57;17.80;;;;;;;16.99;100.00;100110.47;5030795;28;20674;-70
2023/05/22 05:20:05;;;;;;;26.80;16.93;;;;;;;17.12;100.00;100106.66;5032272;28;20281;-72
2023/05/22 05:22:32;;;;;;;24.10;17.70;;;;;;;17.38;100.00;100117.78;5030017;28;20568;-71
2023/05/22 05:24:58;;;;;;;29.07;18.17;;;;;;;17.48;100.00;100105.09;5033801;28;20195;-70
2023/05/22 05:27:25;;;;;;;23.40;17.43;;;;;;;17.60;100.00;100112.00;5029583;28;20192;-70
2023/05/22 05:29:51;;;;;;;26.63;19.50;;;;;;;17.74;100.00;100112.66;5025028;28;20196;-72
2023/05/22 05:32:18;;;;;;;25.00;18.67;;;;;;;17.77;100.00;100107.25;5034678;28;20246;-70
2023/05/22 05:34:45;;;;;;;30.20;19.67;;;;;;;17.84;100.00;100107.09;5031876;28;20709;-70
2023/05/22 05:37:11;;;;;;;27.07;18.57;;;;;;;17.98;100.00;100105.91;5031162;28;20202;-70
2023/05/22 05:39:37;;;;;;;24.97;18.23;;;;;;;17.97;100.00;100102.34;5027824;28;20287;-71
2023/05/22 05:42:04;;;;;;;26.37;18.70;;;;;;;18.07;100.00;100111.09;5027390;28;20643;-71
2023/05/22 05:44:31;;;;;;;27.73;19.00;;;;;;;18.16;100.00;100109.09;5029563;28;20319;-73
2023/05/22 05:46:57;;;;;;;25.80;18.63;;;;;;;18.25;100.00;100113.34;5025269;28;20199;-71
2023/05/22 05:49:24;;;;;;;28.23;19.70;;;;;;;18.36;100.00;100116.66;5027902;28;20199;-70
2023/05/22 05:51:50;;;;;;;28.70;19.37;;;;;;;18.40;100.00;100118.34;5027267;28;20741;-71
2023/05/22 05:54:16;;;;;;;29.00;19.80;;;;;;;18.43;100.00;100125.47;5027268;28;20298;-72
2023/05/22 05:56:43;;;;;;;27.13;20.47;;;;;;;18.50;100.00;100116.38;5030247;28;20345;-72
2023/05/22 05:59:09;;;;;;;29.50;21.37;;;;;;;18.46;99.57;100115.56;5014280;28;20204;-71
2023/05/22 06:01:37;;;;;;;29.67;21.07;;;;;;;18.64;98.60;100121.44;5026652;28;20234;-71
2023/05/22 06:04:04;;;;;;;27.13;20.57;;;;;;;18.70;98.30;100126.66;5023669;28;20215;-72
2023/05/22 06:06:38;;;;;;;27.07;19.20;;;;;;;18.85;98.24;100133.47;5027188;28;20196;-70
2023/05/22 06:09:05;;;;;;;26.70;19.57;;;;;;;19.00;97.17;100130.38;5012548;28;20230;-68
2023/05/22 06:11:32;;;;;;;25.07;18.13;;;;;;;19.23;96.24;100132.50;5027553;28;20218;-70
2023/05/22 06:14:01;;;;;;;25.53;18.43;;;;;;;19.48;94.46;100136.28;5028193;28;20290;-69
2023/05/22 06:16:28;;;;;;;27.77;18.53;;;;;;;19.71;92.48;100127.63;5011206;28;20226;-73
2023/05/22 06:18:56;;;;;;;25.87;18.70;;;;;;;19.86;91.12;100121.81;5013844;28;20200;-70
2023/05/22 06:21:23;;;;;;;23.87;17.63;;;;;;;20.05;91.45;100132.03;5023668;28;20691;-70
2023/05/22 06:23:50;;;;;;;27.17;17.50;;;;;;;20.21;89.30;100133.34;5028315;28;21660;-69
2023/05/22 06:26:16;;;;;;;26.87;18.07;;;;;;;20.38;87.62;100122.06;5028388;28;20206;-69
2023/05/22 06:28:44;;;;;;;26.50;17.93;;;;;;;20.62;87.50;100135.66;5029459;28;20199;-69
2023/05/22 06:31:11;;;;;;;25.93;18.03;;;;;;;20.74;85.84;100125.44;5028396;28;20227;-71
2023/05/22 06:33:39;;;;;;;23.75;16.77;;;;;;;20.88;85.91;100123.19;5024484;28;20306;-70
2023/05/22 06:36:07;;;;;;;24.92;17.23;;;;;;;20.95;85.58;100128.31;5028158;28;20269;-71
2023/05/22 06:38:34;;;;;;;19.88;15.63;;;;;;;21.14;85.65;100131.25;5010240;28;20269;-70
2023/05/22 06:41:00;;;;;;;22.80;17.25;;;;;;;21.23;83.68;100128.31;5020488;28;20228;-71
2023/05/22 06:43:27;;;;;;;26.30;16.88;;;;;;;21.40;82.88;100130.41;5028172;28;20203;-72
2023/05/22 06:45:53;;;;;;;23.10;15.55;;;;;;;21.58;82.76;100131.53;5022519;28;20671;-72
2023/05/22 06:48:19;;;;;;;20.35;14.82;;;;;;;21.80;81.27;100137.94;5027586;28;20231;-71
2023/05/22 06:50:46;;;;;;;22.95;14.50;;;;;;;22.05;80.11;100132.56;5014667;28;20296;-70
2023/05/22 06:53:12;;;;;;;20.40;14.98;;;;;;;22.44;79.37;100127.44;5028889;28;20882;-70
2023/05/22 06:55:39;;;;;;;23.80;16.00;;;;;;;22.52;76.43;100132.53;5011061;28;20226;-70
2023/05/22 06:58:05;;;;;;;20.25;14.77;;;;;;;23.18;73.24;100127.13;5021704;28;20706;-70
2023/05/22 07:00:32;;;;;;;16.85;13.82;;;;;;;24.28;67.48;100128.56;5027402;28;20723;-70
2023/05/22 07:02:58;;;;;;;21.00;14.20;;;;;;;25.39;62.65;100146.59;5024756;28;20218;-70
2023/05/22 07:05:25;;;;;;;18.65;13.75;;;;;;;26.63;57.65;100138.09;5020513;28;20664;-70
2023/05/22 07:07:51;;;;;;;20.85;13.13;;;;;;;27.29;53.84;100149.66;5024793;28;20199;-71
2023/05/22 07:10:17;;;;;;;17.58;12.85;;;;;;;28.37;50.67;100139.38;5026768;28;20568;-69
2023/05/22 07:12:44;;;;;;;16.45;11.13;;;;;;;28.66;45.71;100138.38;5033475;28;20213;-70
2023/05/22 07:15:13;;;;;;;16.17;10.80;;;;;;;29.42;43.92;100148.75;5028433;28;20318;-69
2023/05/22 07:17:40;;;;;;;13.48;9.73;;;;;;;29.05;40.70;100144.06;5033540;28;20365;-69
2023/05/22 07:20:08;;;;;;;15.65;10.05;;;;;;;28.84;40.89;100143.59;5028535;28;20242;-70
2023/05/22 07:22:34;;;;;;;12.18;9.60;;;;;;;28.86;42.38;100141.69;5030064;28;20568;-69
2023/05/22 07:25:01;;;;;;;12.55;9.35;;;;;;;29.48;41.06;100144.78;5026681;28;20590;-66
2023/05/22 07:27:27;;;;;;;23.80;11.50;;;;;;;29.26;41.04;100139.88;5027176;28;20281;-69
2023/05/22 07:29:53;;;;;;;14.48;9.75;;;;;;;29.66;40.33;100151.72;5025036;28;20214;-72
2023/05/22 07:32:20;;;;;;;10.48;9.05;;;;;;;29.68;39.45;100148.88;5028526;28;20215;-70
2023/05/22 07:34:46;;;;;;;11.50;9.70;;;;;;;29.39;40.19;100145.38;5030250;28;20214;-71
2023/05/22 07:37:14;;;;;;;14.85;10.20;;;;;;;29.36;40.83;100149.19;5030037;28;20206;-70
2023/05/22 07:39:41;;;;;;;12.98;10.23;;;;;;;29.19;41.27;100138.53;5037771;28;20203;-69
2023/05/22 07:42:07;;;;;;;14.00;9.98;;;;;;;28.84;41.86;100136.34;5032511;28;20227;-73
2023/05/22 07:44:34;;;;;;;15.60;10.85;;;;;;;28.80;42.21;100133.84;5021864;28;20226;-67
2023/05/22 07:47:00;;;;;;;14.48;10.65;;;;;;;28.78;43.02;100146.72;5037597;28;20195;-72
2023/05/22 07:49:27;;;;;;;16.35;10.73;;;;;;;28.40;43.74;100141.91;5013592;28;20202;-72
2023/05/22 07:51:54;;;;;;;15.13;10.93;;;;;;;28.11;43.83;100135.56;5042829;28;20222;-68
2023/05/22 07:54:21;;;;;;;13.57;10.05;;;;;;;28.11;43.14;100132.84;5028738;28;20207;-69
2023/05/22 07:56:47;;;;;;;14.55;11.27;;;;;;;28.26;44.07;100136.47;5026014;28;20234;-71
2023/05/22 07:59:14;;;;;;;12.63;10.75;;;;;;;28.23;43.95;100142.97;5023572;28;20191;-70
2023/05/22 08:01:41;;;;;;;13.07;10.32;;;;;;;27.94;45.86;100142.06;5023887;28;20319;-70
2023/05/22 08:04:07;;;;;;;27.10;11.70;;;;;;;27.95;44.42;100145.66;5025955;28;20218;-73
2023/05/22 08:06:34;;;;;;;21.00;10.57;;;;;;;27.92;44.20;100151.28;5032179;28;20191;-70
2023/05/22 08:09:02;;;;;;;15.60;11.02;;;;;;;27.56;45.56;100140.78;5028099;28;20203;-72
2023/05/22 08:11:28;;;;;;;13.68;10.60;;;;;;;27.17;47.05;100139.47;5024187;28;20225;-69
2023/05/22 08:13:55;;;;;;;19.02;10.32;;;;;;;27.22;47.15;100153.72;5013152;28;20199;-68
2023/05/22 08:16:21;;;;;;;16.33;10.35;;;;;;;27.02;46.90;100152.13;5018969;28;20277;-72
2023/05/22 08:18:48;;;;;;;12.23;10.18;;;;;;;26.93;46.21;100152.66;5019993;28;20200;-73
2023/05/22 08:21:15;;;;;;;17.52;10.40;;;;;;;27.12;46.82;100147.91;5018897;28;20736;-70
2023/05/22 08:23:41;;;;;;;14.55;10.45;;;;;;;27.10;46.75;100155.28;5019650;28;20287;-69
2023/05/22 08:26:08;;;;;;;13.93;10.20;;;;;;;26.99;46.08;100148.72;5014663;28;20200;-70
2023/05/22 08:28:35;;;;;;;14.43;9.82;;;;;;;27.00;46.23;100150.47;5017535;28;20196;-70
2023/05/22 08:31:02;;;;;;;14.93;10.20;;;;;;;27.14;46.51;100154.13;5013108;28;20220;-70
2023/05/22 08:33:28;;;;;;;15.52;10.57;;;;;;;27.27;45.28;100148.00;5016143;28;20195;-70
2023/05/22 08:35:55;;;;;;;15.88;10.45;;;;;;;27.39;44.75;100142.69;5020133;28;20242;-70
2023/05/22 08:38:21;;;;;;;12.75;9.93;;;;;;;27.15;45.78;100149.56;5019521;28;20632;-71
2023/05/22 08:40:48;;;;;;;13.18;9.98;;;;;;;27.19;44.74;100151.13;5018062;28;20222;-72
2023/05/22 08:43:15;;;;;;;15.40;10.55;;;;;;;27.23;45.37;100144.59;5019415;28;20241;-70
2023/05/22 08:45:42;;;;;;;17.38;10.52;;;;;;;27.26;45.47;100155.28;5017156;28;20210;-71
2023/05/22 08:48:12;;;;;;;19.02;9.98;;;;;;;27.36;44.53;100142.88;5015559;28;20200;-73
2023/05/22 08:50:42;;;;;;;15.82;10.73;;;;;;;27.06;45.10;100150.13;5004600;28;20242;-71
2023/05/22 08:53:12;;;;;;;13.07;10.10;;;;;;;27.08;45.61;100146.34;5003065;28;20302;-73
2023/05/22 08:55:39;;;;;;;18.38;10.88;;;;;;;27.17;45.38;100153.94;5018620;28;20216;-72
2023/05/22 08:58:07;;;;;;;13.98;10.55;;;;;;;27.21;45.68;100143.78;5016670;28;20245;-73
2023/05/22 09:00:34;;;;;;;16.23;10.48;;;;;;;27.32;46.14;100137.72;5017599;28;20588;-70
2023/05/22 09:03:00;;;;;;;14.90;10.40;;;;;;;27.67;45.57;100141.06;5003257;28;20646;-70
2023/05/22 09:05:27;;;;;;;18.20;10.98;;;;;;;27.39;44.44;100134.53;5018014;28;20240;-71
2023/05/22 09:07:54;;;;;;;16.92;11.13;;;;;;;27.39;44.13;100145.41;5020476;28;20210;-71
2023/05/22 09:10:24;;;;;;;19.98;11.00;;;;;;;27.34;44.42;100138.50;5016362;28;20227;-71
2023/05/22 09:13:08;;;;;;;14.93;10.88;;;;;;;27.56;44.41;100132.63;5008034;28;20192;-70
2023/05/22 09:15:37;;;;;;;19.02;10.88;;;;;;;27.35;44.95;100138.41;5023122;28;20315;-70
2023/05/22 09:18:04;;;;;;;18.98;10.95;;;;;;;27.57;44.23;100128.94;5022307;28;20282;-72
2023/05/22 09:20:36;;;;;;;14.98;9.82;;;;;;;27.55;43.51;100130.88;5020238;28;20227;-67
2023/05/22 09:23:11;;;;;;;16.35;10.65;;;;;;;27.51;44.21;100141.06;5016629;28;20207;-72
2023/05/22 09:25:37;;;;;;;16.73;9.52;;;;;;;27.79;44.82;100129.41;5026013;28;20212;-72
2023/05/22 09:28:04;;;;;;;16.65;10.63;;;;;;;28.04;43.97;100132.38;5026362;28;20200;-73
2023/05/22 09:30:35;;;;;;;11.95;10.02;;;;;;;28.38;43.00;100130.22;5024601;28;20220;-69
2023/05/22 09:33:02;;;;;;;14.00;10.32;;;;;;;28.59;42.29;100127.97;5029118;28;20202;-71
2023/05/22 09:35:34;;;;;;;15.40;10.02;;;;;;;28.70;41.76;100129.00;5021562;28;20200;-71
2023/05/22 09:38:00;;;;;;;14.38;9.88;;;;;;;28.86;41.31;100125.34;5027488;28;20215;-73
2023/05/22 09:40:28;;;;;;;13.30;10.73;;;;;;;29.00;41.88;100128.00;5021395;28;20337;-71
2023/05/22 09:42:54;;;;;;;13.10;10.32;;;;;;;29.14;41.55;100133.38;5021897;28;20210;-71
2023/05/22 09:45:25;;;;;;;13.15;10.23;;;;;;;29.25;40.96;100132.69;5020819;28;20196;-74
2023/05/22 09:47:51;;;;;;;14.23;10.23;;;;;;;29.74;40.37;100127.47;5033945;28;20200;-68
2023/05/22 09:50:18;;;;;;;16.00;10.27;;;;;;;29.94;39.43;100135.09;5018347;28;20200;-71
2023/05/22 09:52:45;;;;;;;14.60;10.65;;;;;;;29.75;38.23;100134.69;5019685;28;20275;-72
2023/05/22 09:55:12;;;;;;;14.05;10.45;;;;;;;29.78;39.42;100128.13;5019407;28;20711;-71
2023/05/22 09:57:39;;;;;;;14.65;9.82;;;;;;;30.10;39.77;100131.34;5027447;28;20223;-71
2023/05/22 10:00:14;;;;;;;13.23;9.90;;;;;;;30.25;38.84;100127.50;5025395;28;20199;-75
2023/05/22 10:02:52;;;;;;;12.82;10.52;;;;;;;30.37;38.15;100125.72;5001644;28;20195;-71
2023/05/22 10:05:20;;;;;;;17.67;10.85;;;;;;;30.38;37.87;100122.00;5017389;28;20192;-74
2023/05/22 10:07:56;;;;;;;14.50;10.20;;;;;;;30.31;38.27;100121.56;5022320;28;20206;-71
2023/05/22 10:10:24;;;;;;;14.20;11.07;;;;;;;29.97;38.30;100122.22;5021647;28;20192;-72
2023/05/22 10:13:05;;;;;;;35.15;13.70;;;;;;;30.09;39.00;100130.47;5021500;28;20196;-73
2023/05/22 10:15:31;;;;;;;12.50;10.32;;;;;;;30.34;38.46;100117.75;5022363;28;20200;-71
2023/05/22 10:17:58;;;;;;;14.98;11.15;;;;;;;30.37;37.92;100115.66;5024699;28;20208;-71
2023/05/22 10:20:25;;;;;;;15.85;10.65;;;;;;;30.72;36.82;100121.28;5018247;28;20595;-68
2023/05/22 10:22:52;;;;;;;14.48;10.43;;;;;;;30.75;37.42;100112.00;5025440;28;20196;-69
2023/05/22 10:25:22;;;;;;;13.32;10.60;;;;;;;30.72;37.63;100118.56;5025457;28;20227;-72
2023/05/22 10:27:51;;;;;;;19.48;11.15;;;;;;;30.72;36.96;100118.56;5022510;28;20218;-71
2023/05/22 10:30:35;;;;;;;13.82;10.07;;;;;;;31.07;36.86;100110.44;5020693;28;20204;-71
2023/05/22 10:33:13;;;;;;;11.45;9.90;;;;;;;31.22;35.79;100108.44;5020928;28;20786;-72
2023/05/22 10:35:50;;;;;;;12.05;10.18;;;;;;;31.32;35.88;100101.28;5022060;28;20249;-74
2023/05/22 10:39:03;;;;;;;13.15;10.95;;;;;;;31.12;35.22;100096.41;5020386;28;20196;-71
2023/05/22 10:41:30;;;;;;;13.98;10.85;;;;;;;31.11;35.64;100100.13;5018523;28;20223;-71
2023/05/22 10:43:57;;;;;;;13.70;10.73;;;;;;;31.20;36.08;100096.72;5018670;28;20647;-71
2023/05/22 10:46:24;;;;;;;13.63;10.48;;;;;;;31.25;35.75;100094.53;5018872;28;20192;-69
2023/05/22 10:48:53;;;;;;;13.18;10.48;;;;;;;30.91;36.25;100092.59;5010123;28;20199;-71
2023/05/22 10:51:22;;;;;;;14.05;10.38;;;;;;;30.94;36.46;100090.50;5044616;23;20233;-68
2023/05/22 10:53:57;;;;;;;11.90;10.57;;;;;;;31.25;37.01;100090.91;5019437;28;20221;-68
2023/05/22 10:56:31;;;;;;;14.13;11.45;;;;;;;31.21;37.48;100089.38;5040067;28;20333;-66
2023/05/22 10:59:03;;;;;;;11.75;9.98;;;;;;;31.40;36.58;100086.97;5045318;28;20194;-68
2023/05/22 11:01:36;;;;;;;15.00;10.52;;;;;;;31.08;37.68;100092.16;5013732;28;20314;-69
2023/05/22 11:04:02;;;;;;;13.13;10.88;;;;;;;31.08;38.19;100078.47;5024535;28;20203;-67
2023/05/22 11:06:46;;;;;;;13.88;10.40;;;;;;;31.02;38.80;100081.69;5022216;28;20284;-69
2023/05/22 11:09:32;;;;;;;17.30;11.43;;;;;;;30.67;37.71;100082.50;5017089;28;20200;-67